sensor_id;sensor_type;location;lat;lon;timestamp;P1;durP1;ratioP1;P2;durP2;ratioP2
14734;SDS011;7458;49.002;8.472;2022-09-30T00:00:26;12.68;;;8.32;;
14734;SDS011;7458;49.002;8.472;2022-09-30T00:02:52;9.60;;;6.53;;
14734;SDS011;7458;49.002;8.472;2022-09-30T00:05:17;8.75;;;6.75;;
14734;SDS011;7458;49.002;8.472;2022-09-30T00:07:43;10.02;;;7.28;;
14734;SDS011;7458;49.002;8.472;2022-09-30T00:10:09;8.68;;;7.13;;
14734;SDS011;7458;49.002;8.472;2022-09-30T00:12:35;8.55;;;6.93;;
14734;SDS011;7458;49.002;8.472;2022-09-30T00:15:00;13.18;;;8.07;;
14734;SDS011;7458;49.002;8.472;2022-09-30T00:17:26;10.35;;;8.25;;
14734;SDS011;7458;49.002;8.472;2022-09-30T00:19:52;11.45;;;8.00;;
14734;SDS011;7458;49.002;8.472;2022-09-30T00:22:18;15.52;;;8.07;;
14734;SDS011;7458;49.002;8.472;2022-09-30T00:24:43;8.18;;;6.30;;
14734;SDS011;7458;49.002;8.472;2022-09-30T00:27:10;8.82;;;7.93;;
14734;SDS011;7458;49.002;8.472;2022-09-30T00:29:36;10.27;;;7.20;;
14734;SDS011;7458;49.002;8.472;2022-09-30T00:32:03;7.53;;;6.38;;
14734;SDS011;7458;49.002;8.472;2022-09-30T00:34:29;7.85;;;6.20;;
14734;SDS011;7458;49.002;8.472;2022-09-30T00:36:54;12.23;;;8.18;;
14734;SDS011;7458;49.002;8.472;2022-09-30T00:39:24;7.85;;;6.93;;
14734;SDS011;7458;49.002;8.472;2022-09-30T00:41:56;7.32;;;6.47;;
14734;SDS011;7458;49.002;8.472;2022-09-30T00:47:29;12.48;;;6.88;;
14734;SDS011;7458;49.002;8.472;2022-09-30T00:50:14;8.20;;;7.40;;
14734;SDS011;7458;49.002;8.472;2022-09-30T00:53:02;9.57;;;6.63;;
14734;SDS011;7458;49.002;8.472;2022-09-30T00:55:56;10.15;;;8.10;;
14734;SDS011;7458;49.002;8.472;2022-09-30T01:01:03;9.50;;;7.05;;
14734;SDS011;7458;49.002;8.472;2022-09-30T01:03:34;10.52;;;7.03;;
14734;SDS011;7458;49.002;8.472;2022-09-30T01:06:05;9.35;;;6.85;;
14734;SDS011;7458;49.002;8.472;2022-09-30T01:08:32;12.18;;;7.95;;
14734;SDS011;7458;49.002;8.472;2022-09-30T01:11:02;9.18;;;8.07;;
14734;SDS011;7458;49.002;8.472;2022-09-30T01:13:29;12.93;;;8.45;;
14734;SDS011;7458;49.002;8.472;2022-09-30T01:16:08;7.30;;;6.13;;
14734;SDS011;7458;49.002;8.472;2022-09-30T01:22:08;9.23;;;5.97;;
14734;SDS011;7458;49.002;8.472;2022-09-30T01:30:53;11.00;;;8.15;;
14734;SDS011;7458;49.002;8.472;2022-09-30T01:39:24;11.80;;;7.38;;
14734;SDS011;7458;49.002;8.472;2022-09-30T01:42:16;8.32;;;7.47;;
14734;SDS011;7458;49.002;8.472;2022-09-30T01:47:33;9.23;;;7.18;;
14734;SDS011;7458;49.002;8.472;2022-09-30T01:55:48;9.98;;;8.30;;
14734;SDS011;7458;49.002;8.472;2022-09-30T01:58:43;9.15;;;8.20;;
14734;SDS011;7458;49.002;8.472;2022-09-30T02:01:32;8.57;;;7.30;;
14734;SDS011;7458;49.002;8.472;2022-09-30T02:04:06;9.60;;;8.52;;
14734;SDS011;7458;49.002;8.472;2022-09-30T02:06:40;11.48;;;7.72;;
14734;SDS011;7458;49.002;8.472;2022-09-30T02:09:13;8.50;;;7.45;;
14734;SDS011;7458;49.002;8.472;2022-09-30T02:11:52;10.10;;;7.80;;
14734;SDS011;7458;49.002;8.472;2022-09-30T02:14:35;8.93;;;7.72;;
14734;SDS011;7458;49.002;8.472;2022-09-30T02:17:15;9.02;;;7.18;;
14734;SDS011;7458;49.002;8.472;2022-09-30T02:19:53;9.65;;;8.65;;
14734;SDS011;7458;49.002;8.472;2022-09-30T02:22:37;10.35;;;8.85;;
14734;SDS011;7458;49.002;8.472;2022-09-30T02:25:34;9.37;;;8.33;;
14734;SDS011;7458;49.002;8.472;2022-09-30T02:28:05;8.32;;;7.22;;
14734;SDS011;7458;49.002;8.472;2022-09-30T02:30:38;11.02;;;7.88;;
14734;SDS011;7458;49.002;8.472;2022-09-30T02:33:11;9.57;;;8.10;;
14734;SDS011;7458;49.002;8.472;2022-09-30T02:35:48;10.15;;;7.35;;
14734;SDS011;7458;49.002;8.472;2022-09-30T02:38:25;10.45;;;7.53;;
14734;SDS011;7458;49.002;8.472;2022-09-30T02:41:03;15.88;;;7.13;;
14734;SDS011;7458;49.002;8.472;2022-09-30T02:43:36;10.02;;;8.05;;
14734;SDS011;7458;49.002;8.472;2022-09-30T02:48:44;11.23;;;7.20;;
14734;SDS011;7458;49.002;8.472;2022-09-30T02:54:41;9.05;;;7.43;;
14734;SDS011;7458;49.002;8.472;2022-09-30T02:59:53;12.32;;;7.53;;
14734;SDS011;7458;49.002;8.472;2022-09-30T03:02:20;9.10;;;7.55;;
14734;SDS011;7458;49.002;8.472;2022-09-30T03:04:46;11.52;;;8.88;;
14734;SDS011;7458;49.002;8.472;2022-09-30T03:07:14;7.75;;;7.05;;
14734;SDS011;7458;49.002;8.472;2022-09-30T03:09:40;9.00;;;8.07;;
14734;SDS011;7458;49.002;8.472;2022-09-30T03:18:08;14.48;;;9.98;;
14734;SDS011;7458;49.002;8.472;2022-09-30T03:23:42;18.20;;;12.45;;
14734;SDS011;7458;49.002;8.472;2022-09-30T03:32:05;17.40;;;10.98;;
14734;SDS011;7458;49.002;8.472;2022-09-30T03:34:55;16.77;;;12.52;;
14734;SDS011;7458;49.002;8.472;2022-09-30T03:37:29;23.88;;;17.20;;
14734;SDS011;7458;49.002;8.472;2022-09-30T03:46:45;26.15;;;19.27;;
14734;SDS011;7458;49.002;8.472;2022-09-30T03:49:15;29.70;;;19.42;;
14734;SDS011;7458;49.002;8.472;2022-09-30T03:51:47;28.88;;;18.15;;
14734;SDS011;7458;49.002;8.472;2022-09-30T03:54:13;42.30;;;18.60;;
14734;SDS011;7458;49.002;8.472;2022-09-30T03:56:39;37.50;;;20.00;;
14734;SDS011;7458;49.002;8.472;2022-09-30T03:59:12;31.92;;;20.02;;
14734;SDS011;7458;49.002;8.472;2022-09-30T04:01:50;25.25;;;17.75;;
14734;SDS011;7458;49.002;8.472;2022-09-30T04:04:16;29.55;;;17.73;;
14734;SDS011;7458;49.002;8.472;2022-09-30T04:06:42;24.00;;;16.17;;
14734;SDS011;7458;49.002;8.472;2022-09-30T04:09:08;14.35;;;12.63;;
14734;SDS011;7458;49.002;8.472;2022-09-30T04:11:34;17.00;;;10.13;;
14734;SDS011;7458;49.002;8.472;2022-09-30T04:14:00;12.38;;;10.38;;
14734;SDS011;7458;49.002;8.472;2022-09-30T04:16:29;15.23;;;11.90;;
14734;SDS011;7458;49.002;8.472;2022-09-30T04:18:56;9.88;;;8.85;;
14734;SDS011;7458;49.002;8.472;2022-09-30T04:21:22;16.05;;;9.75;;
14734;SDS011;7458;49.002;8.472;2022-09-30T04:23:48;12.25;;;9.88;;
14734;SDS011;7458;49.002;8.472;2022-09-30T04:26:15;17.27;;;10.40;;
14734;SDS011;7458;49.002;8.472;2022-09-30T04:28:44;16.23;;;10.75;;
14734;SDS011;7458;49.002;8.472;2022-09-30T04:31:11;11.25;;;9.18;;
14734;SDS011;7458;49.002;8.472;2022-09-30T04:33:41;11.23;;;9.52;;
14734;SDS011;7458;49.002;8.472;2022-09-30T04:36:06;12.60;;;9.45;;
14734;SDS011;7458;49.002;8.472;2022-09-30T04:38:32;20.48;;;10.23;;
14734;SDS011;7458;49.002;8.472;2022-09-30T04:41:00;18.10;;;11.02;;
14734;SDS011;7458;49.002;8.472;2022-09-30T04:43:29;18.77;;;10.07;;
14734;SDS011;7458;49.002;8.472;2022-09-30T04:45:56;12.30;;;9.25;;
14734;SDS011;7458;49.002;8.472;2022-09-30T04:48:22;11.98;;;9.10;;
14734;SDS011;7458;49.002;8.472;2022-09-30T04:50:48;16.10;;;9.73;;
14734;SDS011;7458;49.002;8.472;2022-09-30T04:53:15;12.98;;;9.35;;
14734;SDS011;7458;49.002;8.472;2022-09-30T04:55:42;15.55;;;9.38;;
14734;SDS011;7458;49.002;8.472;2022-09-30T04:58:10;13.63;;;9.88;;
14734;SDS011;7458;49.002;8.472;2022-09-30T05:00:37;10.77;;;8.15;;
14734;SDS011;7458;49.002;8.472;2022-09-30T05:03:03;10.45;;;9.35;;
14734;SDS011;7458;49.002;8.472;2022-09-30T05:05:29;14.77;;;8.00;;
14734;SDS011;7458;49.002;8.472;2022-09-30T05:08:00;12.85;;;9.77;;
14734;SDS011;7458;49.002;8.472;2022-09-30T05:10:27;9.10;;;7.47;;
14734;SDS011;7458;49.002;8.472;2022-09-30T05:12:54;12.63;;;8.95;;
14734;SDS011;7458;49.002;8.472;2022-09-30T05:15:22;11.35;;;8.68;;
14734;SDS011;7458;49.002;8.472;2022-09-30T05:17:48;9.93;;;7.32;;
14734;SDS011;7458;49.002;8.472;2022-09-30T05:20:14;14.20;;;8.60;;
14734;SDS011;7458;49.002;8.472;2022-09-30T05:22:40;12.23;;;10.23;;
14734;SDS011;7458;49.002;8.472;2022-09-30T05:25:06;11.93;;;7.90;;
14734;SDS011;7458;49.002;8.472;2022-09-30T05:27:32;10.55;;;8.38;;
14734;SDS011;7458;49.002;8.472;2022-09-30T05:29:58;13.98;;;8.70;;
14734;SDS011;7458;49.002;8.472;2022-09-30T05:32:24;13.30;;;8.02;;
14734;SDS011;7458;49.002;8.472;2022-09-30T05:34:50;7.80;;;5.68;;
14734;SDS011;7458;49.002;8.472;2022-09-30T05:37:16;10.02;;;8.98;;
14734;SDS011;7458;49.002;8.472;2022-09-30T05:39:42;10.95;;;7.10;;
14734;SDS011;7458;49.002;8.472;2022-09-30T05:42:07;10.82;;;8.57;;
14734;SDS011;7458;49.002;8.472;2022-09-30T05:44:33;17.40;;;9.40;;
14734;SDS011;7458;49.002;8.472;2022-09-30T05:46:59;12.38;;;8.63;;
14734;SDS011;7458;49.002;8.472;2022-09-30T05:49:25;8.90;;;7.93;;
14734;SDS011;7458;49.002;8.472;2022-09-30T05:51:51;8.02;;;7.22;;
14734;SDS011;7458;49.002;8.472;2022-09-30T05:54:20;10.07;;;8.63;;
14734;SDS011;7458;49.002;8.472;2022-09-30T05:56:45;8.88;;;7.97;;
14734;SDS011;7458;49.002;8.472;2022-09-30T05:59:11;10.63;;;8.95;;
14734;SDS011;7458;49.002;8.472;2022-09-30T06:01:37;9.90;;;8.05;;
14734;SDS011;7458;49.002;8.472;2022-09-30T06:04:03;9.38;;;8.32;;
14734;SDS011;7458;49.002;8.472;2022-09-30T06:06:28;11.55;;;9.32;;
14734;SDS011;7458;49.002;8.472;2022-09-30T06:08:55;10.48;;;9.15;;
14734;SDS011;7458;49.002;8.472;2022-09-30T06:11:21;10.25;;;8.65;;
14734;SDS011;7458;49.002;8.472;2022-09-30T06:13:50;10.23;;;7.88;;
14734;SDS011;7458;49.002;8.472;2022-09-30T06:16:16;16.13;;;9.23;;
14734;SDS011;7458;49.002;8.472;2022-09-30T06:18:43;10.00;;;8.93;;
14734;SDS011;7458;49.002;8.472;2022-09-30T06:21:10;15.38;;;8.52;;
14734;SDS011;7458;49.002;8.472;2022-09-30T06:23:39;9.65;;;8.60;;
14734;SDS011;7458;49.002;8.472;2022-09-30T06:26:06;14.30;;;10.13;;
14734;SDS011;7458;49.002;8.472;2022-09-30T06:28:35;10.93;;;9.82;;
14734;SDS011;7458;49.002;8.472;2022-09-30T06:31:02;15.10;;;9.60;;
14734;SDS011;7458;49.002;8.472;2022-09-30T06:33:29;12.90;;;10.10;;
14734;SDS011;7458;49.002;8.472;2022-09-30T06:35:56;12.30;;;9.93;;
14734;SDS011;7458;49.002;8.472;2022-09-30T06:38:22;15.82;;;12.75;;
14734;SDS011;7458;49.002;8.472;2022-09-30T06:40:48;15.43;;;11.65;;
14734;SDS011;7458;49.002;8.472;2022-09-30T06:43:17;14.80;;;12.70;;
14734;SDS011;7458;49.002;8.472;2022-09-30T06:45:45;19.45;;;13.40;;
14734;SDS011;7458;49.002;8.472;2022-09-30T06:48:12;16.92;;;13.52;;
14734;SDS011;7458;49.002;8.472;2022-09-30T06:50:40;16.17;;;14.30;;
14734;SDS011;7458;49.002;8.472;2022-09-30T06:53:06;15.07;;;13.48;;
14734;SDS011;7458;49.002;8.472;2022-09-30T06:55:35;20.25;;;13.90;;
14734;SDS011;7458;49.002;8.472;2022-09-30T06:58:05;15.55;;;13.85;;
14734;SDS011;7458;49.002;8.472;2022-09-30T07:00:35;19.63;;;12.88;;
14734;SDS011;7458;49.002;8.472;2022-09-30T07:03:02;19.23;;;14.63;;
14734;SDS011;7458;49.002;8.472;2022-09-30T07:05:33;15.70;;;13.63;;
14734;SDS011;7458;49.002;8.472;2022-09-30T07:08:00;24.73;;;15.63;;
14734;SDS011;7458;49.002;8.472;2022-09-30T07:10:26;15.50;;;13.48;;
14734;SDS011;7458;49.002;8.472;2022-09-30T07:12:52;16.25;;;14.55;;
14734;SDS011;7458;49.002;8.472;2022-09-30T07:15:18;17.38;;;13.82;;
14734;SDS011;7458;49.002;8.472;2022-09-30T07:17:53;19.08;;;13.57;;
14734;SDS011;7458;49.002;8.472;2022-09-30T07:20:23;22.48;;;14.50;;
14734;SDS011;7458;49.002;8.472;2022-09-30T07:22:49;17.20;;;14.23;;
14734;SDS011;7458;49.002;8.472;2022-09-30T07:25:16;16.63;;;13.20;;
14734;SDS011;7458;49.002;8.472;2022-09-30T07:27:43;16.33;;;12.88;;
14734;SDS011;7458;49.002;8.472;2022-09-30T07:30:10;18.15;;;14.02;;
14734;SDS011;7458;49.002;8.472;2022-09-30T07:32:36;14.20;;;12.52;;
14734;SDS011;7458;49.002;8.472;2022-09-30T07:35:02;16.25;;;14.57;;
14734;SDS011;7458;49.002;8.472;2022-09-30T07:37:30;14.68;;;12.77;;
14734;SDS011;7458;49.002;8.472;2022-09-30T07:40:00;19.20;;;14.02;;
14734;SDS011;7458;49.002;8.472;2022-09-30T07:42:29;19.88;;;14.75;;
14734;SDS011;7458;49.002;8.472;2022-09-30T07:44:55;20.45;;;14.98;;
14734;SDS011;7458;49.002;8.472;2022-09-30T07:47:21;18.30;;;15.43;;
14734;SDS011;7458;49.002;8.472;2022-09-30T07:49:47;15.27;;;13.77;;
14734;SDS011;7458;49.002;8.472;2022-09-30T07:52:13;18.77;;;16.10;;
14734;SDS011;7458;49.002;8.472;2022-09-30T07:54:39;18.33;;;16.42;;
14734;SDS011;7458;49.002;8.472;2022-09-30T07:57:06;16.42;;;14.65;;
14734;SDS011;7458;49.002;8.472;2022-09-30T07:59:33;16.48;;;14.77;;
14734;SDS011;7458;49.002;8.472;2022-09-30T08:02:03;15.55;;;13.75;;
14734;SDS011;7458;49.002;8.472;2022-09-30T08:04:32;19.30;;;15.63;;
14734;SDS011;7458;49.002;8.472;2022-09-30T08:06:59;17.83;;;16.02;;
14734;SDS011;7458;49.002;8.472;2022-09-30T08:09:28;15.70;;;14.18;;
14734;SDS011;7458;49.002;8.472;2022-09-30T08:11:54;15.35;;;13.85;;
14734;SDS011;7458;49.002;8.472;2022-09-30T08:14:24;17.30;;;13.98;;
14734;SDS011;7458;49.002;8.472;2022-09-30T08:16:52;14.63;;;12.77;;
14734;SDS011;7458;49.002;8.472;2022-09-30T08:19:21;26.00;;;13.77;;
14734;SDS011;7458;49.002;8.472;2022-09-30T08:21:48;16.58;;;13.95;;
14734;SDS011;7458;49.002;8.472;2022-09-30T08:24:17;14.65;;;13.13;;
14734;SDS011;7458;49.002;8.472;2022-09-30T08:26:44;16.55;;;12.95;;
14734;SDS011;7458;49.002;8.472;2022-09-30T08:29:10;13.20;;;11.95;;
14734;SDS011;7458;49.002;8.472;2022-09-30T08:31:37;15.10;;;13.57;;
14734;SDS011;7458;49.002;8.472;2022-09-30T08:34:03;16.35;;;13.02;;
14734;SDS011;7458;49.002;8.472;2022-09-30T08:36:29;17.85;;;12.05;;
14734;SDS011;7458;49.002;8.472;2022-09-30T08:38:55;13.85;;;12.48;;
14734;SDS011;7458;49.002;8.472;2022-09-30T08:52:27;14.52;;;12.13;;
14734;SDS011;7458;49.002;8.472;2022-09-30T08:54:59;13.40;;;11.93;;
14734;SDS011;7458;49.002;8.472;2022-09-30T08:57:27;17.15;;;13.93;;
14734;SDS011;7458;49.002;8.472;2022-09-30T09:00:05;12.80;;;11.40;;
14734;SDS011;7458;49.002;8.472;2022-09-30T09:05:14;16.42;;;13.57;;
14734;SDS011;7458;49.002;8.472;2022-09-30T09:07:57;14.98;;;13.43;;
14734;SDS011;7458;49.002;8.472;2022-09-30T09:10:41;14.60;;;13.17;;
14734;SDS011;7458;49.002;8.472;2022-09-30T09:18:56;12.43;;;11.13;;
14734;SDS011;7458;49.002;8.472;2022-09-30T09:21:52;17.70;;;12.15;;
14734;SDS011;7458;49.002;8.472;2022-09-30T09:24:37;13.07;;;11.75;;
14734;SDS011;7458;49.002;8.472;2022-09-30T09:27:13;15.25;;;12.60;;
14734;SDS011;7458;49.002;8.472;2022-09-30T09:32:37;15.68;;;13.02;;
14734;SDS011;7458;49.002;8.472;2022-09-30T09:35:08;13.45;;;12.05;;
14734;SDS011;7458;49.002;8.472;2022-09-30T09:37:50;15.05;;;13.55;;
14734;SDS011;7458;49.002;8.472;2022-09-30T09:44:12;13.30;;;11.65;;
14734;SDS011;7458;49.002;8.472;2022-09-30T09:47:17;14.35;;;12.55;;
14734;SDS011;7458;49.002;8.472;2022-09-30T09:52:25;16.33;;;11.57;;
14734;SDS011;7458;49.002;8.472;2022-09-30T09:55:15;12.15;;;10.63;;
14734;SDS011;7458;49.002;8.472;2022-09-30T09:57:46;16.02;;;12.23;;
14734;SDS011;7458;49.002;8.472;2022-09-30T10:00:23;12.45;;;11.15;;
14734;SDS011;7458;49.002;8.472;2022-09-30T10:06:04;14.32;;;11.20;;
14734;SDS011;7458;49.002;8.472;2022-09-30T10:08:35;13.40;;;11.15;;
14734;SDS011;7458;49.002;8.472;2022-09-30T10:11:31;12.57;;;10.50;;
14734;SDS011;7458;49.002;8.472;2022-09-30T10:13:59;12.20;;;10.07;;
14734;SDS011;7458;49.002;8.472;2022-09-30T10:16:32;11.65;;;10.45;;
14734;SDS011;7458;49.002;8.472;2022-09-30T10:19:02;12.38;;;11.05;;
14734;SDS011;7458;49.002;8.472;2022-09-30T10:21:51;12.52;;;11.25;;
14734;SDS011;7458;49.002;8.472;2022-09-30T10:27:03;14.30;;;11.88;;
14734;SDS011;7458;49.002;8.472;2022-09-30T10:29:54;11.88;;;10.57;;
14734;SDS011;7458;49.002;8.472;2022-09-30T10:32:20;12.13;;;9.52;;
14734;SDS011;7458;49.002;8.472;2022-09-30T10:34:53;20.17;;;10.20;;
14734;SDS011;7458;49.002;8.472;2022-09-30T10:37:28;11.73;;;9.63;;
14734;SDS011;7458;49.002;8.472;2022-09-30T10:39:56;12.65;;;9.93;;
14734;SDS011;7458;49.002;8.472;2022-09-30T10:42:27;11.70;;;9.38;;
14734;SDS011;7458;49.002;8.472;2022-09-30T10:45:01;10.73;;;9.48;;
14734;SDS011;7458;49.002;8.472;2022-09-30T10:47:44;13.70;;;10.13;;
14734;SDS011;7458;49.002;8.472;2022-09-30T10:50:16;17.15;;;9.68;;
14734;SDS011;7458;49.002;8.472;2022-09-30T10:52:54;11.10;;;8.73;;
14734;SDS011;7458;49.002;8.472;2022-09-30T10:55:41;11.77;;;9.45;;
14734;SDS011;7458;49.002;8.472;2022-09-30T11:01:11;19.77;;;9.73;;
14734;SDS011;7458;49.002;8.472;2022-09-30T11:04:13;11.15;;;9.63;;
14734;SDS011;7458;49.002;8.472;2022-09-30T11:06:52;10.60;;;9.57;;
14734;SDS011;7458;49.002;8.472;2022-09-30T11:09:37;11.57;;;9.50;;
14734;SDS011;7458;49.002;8.472;2022-09-30T11:12:50;10.93;;;9.23;;
14734;SDS011;7458;49.002;8.472;2022-09-30T11:15:23;12.80;;;10.50;;
14734;SDS011;7458;49.002;8.472;2022-09-30T11:18:12;11.35;;;9.30;;
14734;SDS011;7458;49.002;8.472;2022-09-30T11:20:49;15.88;;;9.60;;
14734;SDS011;7458;49.002;8.472;2022-09-30T11:23:25;15.50;;;10.10;;
14734;SDS011;7458;49.002;8.472;2022-09-30T11:34:13;13.23;;;10.30;;
14734;SDS011;7458;49.002;8.472;2022-09-30T11:37:07;11.35;;;9.45;;
14734;SDS011;7458;49.002;8.472;2022-09-30T11:51:52;9.35;;;8.00;;
14734;SDS011;7458;49.002;8.472;2022-09-30T11:54:53;11.02;;;8.73;;
14734;SDS011;7458;49.002;8.472;2022-09-30T12:00:34;10.57;;;9.10;;
14734;SDS011;7458;49.002;8.472;2022-09-30T12:03:09;10.18;;;8.02;;
14734;SDS011;7458;49.002;8.472;2022-09-30T12:05:48;10.68;;;9.52;;
14734;SDS011;7458;49.002;8.472;2022-09-30T12:08:47;9.85;;;8.18;;
14734;SDS011;7458;49.002;8.472;2022-09-30T12:11:24;12.45;;;8.88;;
14734;SDS011;7458;49.002;8.472;2022-09-30T12:14:09;12.82;;;9.57;;
14734;SDS011;7458;49.002;8.472;2022-09-30T12:16:50;8.90;;;7.90;;
14734;SDS011;7458;49.002;8.472;2022-09-30T12:19:20;9.13;;;8.07;;
14734;SDS011;7458;49.002;8.472;2022-09-30T12:24:39;15.48;;;8.13;;
14734;SDS011;7458;49.002;8.472;2022-09-30T12:27:30;9.68;;;8.25;;
14734;SDS011;7458;49.002;8.472;2022-09-30T12:30:15;9.38;;;8.27;;
14734;SDS011;7458;49.002;8.472;2022-09-30T12:35:37;10.55;;;9.48;;
14734;SDS011;7458;49.002;8.472;2022-09-30T12:38:47;11.60;;;8.30;;
14734;SDS011;7458;49.002;8.472;2022-09-30T12:42:10;8.73;;;7.82;;
14734;SDS011;7458;49.002;8.472;2022-09-30T12:45:08;9.95;;;8.05;;
14734;SDS011;7458;49.002;8.472;2022-09-30T12:48:07;8.50;;;7.63;;
14734;SDS011;7458;49.002;8.472;2022-09-30T12:53:19;12.95;;;11.65;;
14734;SDS011;7458;49.002;8.472;2022-09-30T12:56:07;9.60;;;7.80;;
14734;SDS011;7458;49.002;8.472;2022-09-30T12:58:48;11.88;;;7.70;;
14734;SDS011;7458;49.002;8.472;2022-09-30T13:01:17;9.93;;;6.95;;
14734;SDS011;7458;49.002;8.472;2022-09-30T13:06:23;9.07;;;6.65;;
14734;SDS011;7458;49.002;8.472;2022-09-30T13:09:16;10.35;;;6.97;;
14734;SDS011;7458;49.002;8.472;2022-09-30T13:19:38;6.10;;;5.25;;
14734;SDS011;7458;49.002;8.472;2022-09-30T13:32:42;6.90;;;5.13;;
14734;SDS011;7458;49.002;8.472;2022-09-30T13:38:31;7.63;;;6.50;;
14734;SDS011;7458;49.002;8.472;2022-09-30T13:41:22;9.13;;;5.40;;
14734;SDS011;7458;49.002;8.472;2022-09-30T13:43:57;11.43;;;5.28;;
14734;SDS011;7458;49.002;8.472;2022-09-30T13:46:41;8.60;;;6.38;;
14734;SDS011;7458;49.002;8.472;2022-09-30T13:49:16;6.95;;;5.97;;
14734;SDS011;7458;49.002;8.472;2022-09-30T13:51:50;8.00;;;6.30;;
14734;SDS011;7458;49.002;8.472;2022-09-30T13:54:32;8.52;;;5.70;;
14734;SDS011;7458;49.002;8.472;2022-09-30T13:57:04;5.65;;;4.60;;
14734;SDS011;7458;49.002;8.472;2022-09-30T13:59:42;9.18;;;5.78;;
14734;SDS011;7458;49.002;8.472;2022-09-30T14:08:41;5.13;;;4.43;;
14734;SDS011;7458;49.002;8.472;2022-09-30T14:11:48;7.40;;;5.45;;
14734;SDS011;7458;49.002;8.472;2022-09-30T14:23:28;6.72;;;5.85;;
14734;SDS011;7458;49.002;8.472;2022-09-30T14:26:13;5.55;;;4.82;;
14734;SDS011;7458;49.002;8.472;2022-09-30T14:28:46;16.23;;;10.55;;
14734;SDS011;7458;49.002;8.472;2022-09-30T14:31:22;8.27;;;5.75;;
14734;SDS011;7458;49.002;8.472;2022-09-30T14:33:49;10.63;;;7.05;;
14734;SDS011;7458;49.002;8.472;2022-09-30T14:36:17;6.05;;;5.05;;
14734;SDS011;7458;49.002;8.472;2022-09-30T14:38:47;6.18;;;4.82;;
14734;SDS011;7458;49.002;8.472;2022-09-30T14:41:21;7.65;;;5.00;;
14734;SDS011;7458;49.002;8.472;2022-09-30T14:43:51;5.18;;;4.57;;
14734;SDS011;7458;49.002;8.472;2022-09-30T14:46:39;6.82;;;5.50;;
14734;SDS011;7458;49.002;8.472;2022-09-30T14:49:21;7.63;;;4.47;;
14734;SDS011;7458;49.002;8.472;2022-09-30T14:51:56;8.45;;;5.40;;
14734;SDS011;7458;49.002;8.472;2022-09-30T14:54:26;9.75;;;6.10;;
14734;SDS011;7458;49.002;8.472;2022-09-30T14:56:55;5.00;;;4.45;;
14734;SDS011;7458;49.002;8.472;2022-09-30T14:59:31;5.78;;;5.15;;
14734;SDS011;7458;49.002;8.472;2022-09-30T15:02:14;6.97;;;5.93;;
14734;SDS011;7458;49.002;8.472;2022-09-30T15:04:50;7.10;;;4.93;;
14734;SDS011;7458;49.002;8.472;2022-09-30T15:07:19;9.27;;;5.07;;
14734;SDS011;7458;49.002;8.472;2022-09-30T15:09:45;7.97;;;5.20;;
14734;SDS011;7458;49.002;8.472;2022-09-30T15:12:17;5.47;;;4.85;;
14734;SDS011;7458;49.002;8.472;2022-09-30T15:14:51;6.60;;;4.38;;
14734;SDS011;7458;49.002;8.472;2022-09-30T15:17:23;4.38;;;3.97;;
14734;SDS011;7458;49.002;8.472;2022-09-30T15:20:21;5.75;;;3.88;;
14734;SDS011;7458;49.002;8.472;2022-09-30T15:22:48;10.00;;;5.35;;
14734;SDS011;7458;49.002;8.472;2022-09-30T15:25:17;5.82;;;4.93;;
14734;SDS011;7458;49.002;8.472;2022-09-30T15:27:45;7.10;;;5.07;;
14734;SDS011;7458;49.002;8.472;2022-09-30T15:32:39;7.32;;;3.83;;
14734;SDS011;7458;49.002;8.472;2022-09-30T15:35:11;5.05;;;3.65;;
14734;SDS011;7458;49.002;8.472;2022-09-30T15:37:44;5.05;;;3.28;;
14734;SDS011;7458;49.002;8.472;2022-09-30T15:40:17;10.50;;;3.55;;
14734;SDS011;7458;49.002;8.472;2022-09-30T15:43:06;10.00;;;3.75;;
14734;SDS011;7458;49.002;8.472;2022-09-30T15:45:39;9.75;;;3.95;;
14734;SDS011;7458;49.002;8.472;2022-09-30T15:50:53;7.25;;;3.63;;
14734;SDS011;7458;49.002;8.472;2022-09-30T15:55:58;6.47;;;4.32;;
14734;SDS011;7458;49.002;8.472;2022-09-30T15:58:40;4.85;;;3.60;;
14734;SDS011;7458;49.002;8.472;2022-09-30T16:06:57;5.18;;;4.10;;
14734;SDS011;7458;49.002;8.472;2022-09-30T16:09:36;7.57;;;4.68;;
14734;SDS011;7458;49.002;8.472;2022-09-30T16:12:06;6.05;;;4.10;;
14734;SDS011;7458;49.002;8.472;2022-09-30T16:14:45;4.35;;;3.92;;
14734;SDS011;7458;49.002;8.472;2022-09-30T16:17:43;6.10;;;3.58;;
14734;SDS011;7458;49.002;8.472;2022-09-30T16:30:36;5.20;;;4.18;;
14734;SDS011;7458;49.002;8.472;2022-09-30T16:33:12;5.22;;;3.55;;
14734;SDS011;7458;49.002;8.472;2022-09-30T16:35:43;7.10;;;3.88;;
14734;SDS011;7458;49.002;8.472;2022-09-30T16:38:12;5.43;;;3.63;;
14734;SDS011;7458;49.002;8.472;2022-09-30T16:40:41;6.97;;;3.35;;
14734;SDS011;7458;49.002;8.472;2022-09-30T16:43:08;5.18;;;4.00;;
14734;SDS011;7458;49.002;8.472;2022-09-30T16:45:35;6.57;;;4.18;;
14734;SDS011;7458;49.002;8.472;2022-09-30T16:48:04;5.65;;;3.78;;
14734;SDS011;7458;49.002;8.472;2022-09-30T16:50:42;4.57;;;3.83;;
14734;SDS011;7458;49.002;8.472;2022-09-30T16:53:20;9.25;;;7.57;;
14734;SDS011;7458;49.002;8.472;2022-09-30T16:55:46;6.47;;;4.90;;
14734;SDS011;7458;49.002;8.472;2022-09-30T16:58:12;12.63;;;11.32;;
14734;SDS011;7458;49.002;8.472;2022-09-30T17:00:41;8.82;;;6.15;;
14734;SDS011;7458;49.002;8.472;2022-09-30T17:03:12;6.47;;;5.80;;
14734;SDS011;7458;49.002;8.472;2022-09-30T17:05:41;5.72;;;4.82;;
14734;SDS011;7458;49.002;8.472;2022-09-30T17:08:10;6.05;;;5.05;;
14734;SDS011;7458;49.002;8.472;2022-09-30T17:10:38;8.20;;;5.30;;
14734;SDS011;7458;49.002;8.472;2022-09-30T17:13:06;4.45;;;4.00;;
14734;SDS011;7458;49.002;8.472;2022-09-30T17:15:33;17.02;;;5.70;;
14734;SDS011;7458;49.002;8.472;2022-09-30T17:18:03;16.38;;;5.63;;
14734;SDS011;7458;49.002;8.472;2022-09-30T17:20:31;8.52;;;6.63;;
14734;SDS011;7458;49.002;8.472;2022-09-30T17:22:58;8.57;;;5.95;;
14734;SDS011;7458;49.002;8.472;2022-09-30T17:25:23;9.68;;;6.75;;
14734;SDS011;7458;49.002;8.472;2022-09-30T17:27:49;10.48;;;6.78;;
14734;SDS011;7458;49.002;8.472;2022-09-30T17:30:15;9.73;;;7.15;;
14734;SDS011;7458;49.002;8.472;2022-09-30T17:32:43;10.70;;;6.00;;
14734;SDS011;7458;49.002;8.472;2022-09-30T17:35:09;9.35;;;7.60;;
14734;SDS011;7458;49.002;8.472;2022-09-30T17:37:36;9.13;;;6.43;;
14734;SDS011;7458;49.002;8.472;2022-09-30T17:40:03;6.63;;;5.78;;
14734;SDS011;7458;49.002;8.472;2022-09-30T17:42:51;7.82;;;7.03;;
14734;SDS011;7458;49.002;8.472;2022-09-30T17:45:35;9.85;;;8.50;;
14734;SDS011;7458;49.002;8.472;2022-09-30T17:48:04;10.50;;;8.18;;
14734;SDS011;7458;49.002;8.472;2022-09-30T17:50:31;9.02;;;8.13;;
14734;SDS011;7458;49.002;8.472;2022-09-30T17:52:59;10.55;;;8.07;;
14734;SDS011;7458;49.002;8.472;2022-09-30T17:55:26;8.27;;;7.43;;
14734;SDS011;7458;49.002;8.472;2022-09-30T17:57:54;10.65;;;9.35;;
14734;SDS011;7458;49.002;8.472;2022-09-30T18:00:20;10.20;;;7.57;;
14734;SDS011;7458;49.002;8.472;2022-09-30T18:02:46;8.63;;;7.55;;
14734;SDS011;7458;49.002;8.472;2022-09-30T18:05:12;9.38;;;7.53;;
14734;SDS011;7458;49.002;8.472;2022-09-30T18:07:39;9.30;;;7.30;;
14734;SDS011;7458;49.002;8.472;2022-09-30T18:10:05;11.70;;;7.20;;
14734;SDS011;7458;49.002;8.472;2022-09-30T18:12:32;9.95;;;8.75;;
14734;SDS011;7458;49.002;8.472;2022-09-30T18:14:59;15.40;;;8.82;;
14734;SDS011;7458;49.002;8.472;2022-09-30T18:17:25;13.25;;;9.38;;
14734;SDS011;7458;49.002;8.472;2022-09-30T18:19:51;9.25;;;8.35;;
14734;SDS011;7458;49.002;8.472;2022-09-30T18:22:17;14.50;;;7.40;;
14734;SDS011;7458;49.002;8.472;2022-09-30T18:24:43;13.50;;;8.40;;
14734;SDS011;7458;49.002;8.472;2022-09-30T18:27:27;9.00;;;7.90;;
14734;SDS011;7458;49.002;8.472;2022-09-30T18:29:58;12.18;;;9.02;;
14734;SDS011;7458;49.002;8.472;2022-09-30T18:32:28;8.45;;;7.57;;